createdAt,value
2018-05-24T00:00:30.362Z,3.00
2018-05-24T00:01:30.376Z,3.30
2018-05-24T00:02:30.435Z,3.00
2018-05-24T00:03:30.431Z,3.00
2018-05-24T00:04:30.403Z,3.20
2018-05-24T00:05:30.452Z,3.20
2018-05-24T00:06:30.450Z,2.90
2018-05-24T00:07:30.505Z,3.20
2018-05-24T00:08:30.454Z,3.40
2018-05-24T00:09:30.495Z,3.20
2018-05-24T00:10:30.531Z,2.90
2018-05-24T00:11:30.498Z,3.30
2018-05-24T00:12:30.502Z,3.20
2018-05-24T00:13:30.553Z,2.90
2018-05-24T00:14:30.527Z,3.00
2018-05-24T00:15:30.584Z,3.10
2018-05-24T00:16:30.587Z,3.20
2018-05-24T00:17:30.575Z,3.90
2018-05-24T00:18:30.591Z,3.00
2018-05-24T00:19:30.613Z,3.00
2018-05-24T00:20:30.681Z,3.10
2018-05-24T00:21:30.625Z,2.90
2018-05-24T00:22:30.626Z,3.40
2018-05-24T00:23:30.640Z,3.10
2018-05-24T00:24:30.648Z,3.00
2018-05-24T00:25:30.660Z,3.30
2018-05-24T00:26:30.706Z,3.10
2018-05-24T00:27:30.698Z,2.90
2018-05-24T00:28:30.707Z,3.20
2018-05-24T00:29:30.718Z,3.40
2018-05-24T00:30:30.726Z,3.20
2018-05-24T00:31:30.755Z,3.20
2018-05-24T00:32:30.783Z,3.20
2018-05-24T00:33:30.760Z,3.20
2018-05-24T00:34:30.759Z,3.20
2018-05-24T00:35:30.770Z,3.30
2018-05-24T00:36:30.811Z,3.10
2018-05-24T00:37:30.939Z,3.10
2018-05-24T00:38:30.824Z,3.20
2018-05-24T00:39:30.842Z,3.60
2018-05-24T00:40:30.839Z,3.30
2018-05-24T00:41:30.848Z,3.60
2018-05-24T00:42:30.877Z,3.20
2018-05-24T00:43:30.926Z,3.20
2018-05-24T00:44:30.887Z,3.30
2018-05-24T00:45:30.905Z,3.10
2018-05-24T00:46:30.921Z,3.40
2018-05-24T00:47:30.924Z,3.50
2018-05-24T00:48:30.957Z,3.20
2018-05-24T00:49:31.002Z,3.20
2018-05-24T00:50:30.962Z,3.20
2018-05-24T00:51:30.980Z,3.40
2018-05-24T00:52:30.983Z,3.20
2018-05-24T00:53:31.004Z,3.30
2018-05-24T00:54:31.051Z,3.00
2018-05-24T00:55:31.065Z,3.30
2018-05-24T00:56:31.028Z,3.50
2018-05-24T00:57:31.070Z,3.20
2018-05-24T00:58:31.086Z,3.30
2018-05-24T00:59:31.209Z,3.50
2018-05-24T01:00:31.569Z,3.00
2018-05-24T01:01:31.164Z,3.10
2018-05-24T01:02:31.105Z,3.20
2018-05-24T01:03:31.126Z,3.30
2018-05-24T01:04:31.153Z,3.40
2018-05-24T01:05:31.168Z,3.20
2018-05-24T01:06:31.192Z,3.20
2018-05-24T01:07:31.175Z,3.30
2018-05-24T01:08:31.196Z,3.20
2018-05-24T01:09:31.178Z,3.10
2018-05-24T01:10:31.207Z,3.30
2018-05-24T01:11:31.267Z,3.10
2018-05-24T01:12:31.220Z,3.20
2018-05-24T01:13:31.240Z,3.30
2018-05-24T01:14:31.251Z,3.00
2018-05-24T01:15:31.274Z,3.20
2018-05-24T01:16:31.304Z,2.90
2018-05-24T01:17:31.275Z,3.40
2018-05-24T01:18:31.316Z,3.10
2018-05-24T01:19:31.321Z,3.20
2018-05-24T01:20:31.333Z,3.10
2018-05-24T01:21:31.344Z,3.60
2018-05-24T01:22:31.358Z,3.40
2018-05-24T01:23:31.411Z,3.20
2018-05-24T01:24:31.421Z,2.90
2018-05-24T01:25:31.382Z,3.20
2018-05-24T01:26:31.382Z,3.10
2018-05-24T01:27:31.391Z,3.30
2018-05-24T01:28:31.405Z,3.50
2018-05-24T01:29:31.461Z,3.30
2018-05-24T01:30:31.453Z,3.20
2018-05-24T01:31:31.456Z,3.20
2018-05-24T01:32:31.473Z,3.10
2018-05-24T01:33:31.476Z,3.20
2018-05-24T01:34:31.553Z,3.40
2018-05-24T01:35:31.496Z,3.40
2018-05-24T01:36:31.569Z,3.20
2018-05-24T01:37:31.513Z,3.30
2018-05-24T01:38:31.535Z,3.30
2018-05-24T01:39:31.559Z,3.30
2018-05-24T01:40:31.586Z,3.10
2018-05-24T01:41:31.590Z,3.20
2018-05-24T01:42:31.569Z,3.20
2018-05-24T01:43:31.590Z,3.20
2018-05-24T01:44:31.604Z,3.20
2018-05-24T01:45:31.653Z,3.20
2018-05-24T01:46:31.637Z,3.30
2018-05-24T01:47:31.634Z,3.30
2018-05-24T01:48:31.648Z,3.30
2018-05-24T01:49:31.654Z,3.20
2018-05-24T01:50:31.695Z,3.90
2018-05-24T01:51:31.733Z,3.30
2018-05-24T01:52:31.707Z,3.40
2018-05-24T01:53:31.708Z,3.10
2018-05-24T01:54:31.721Z,3.40
2018-05-24T01:55:31.742Z,3.40
2018-05-24T01:56:31.767Z,3.20
2018-05-24T01:57:31.799Z,3.20
2018-05-24T01:58:31.772Z,3.20
2018-05-24T01:59:31.773Z,3.30
2018-05-24T02:00:31.778Z,3.30
2018-05-24T02:01:31.800Z,3.10
2018-05-24T02:02:31.850Z,4.10
2018-05-24T02:03:31.867Z,3.30
2018-05-24T02:04:31.836Z,3.30
2018-05-24T02:05:31.847Z,3.30
2018-05-24T02:06:31.866Z,3.40
2018-05-24T02:07:31.869Z,3.30
2018-05-24T02:08:31.929Z,3.90
2018-05-24T02:09:31.885Z,3.30
2018-05-24T02:10:31.943Z,4.20
2018-05-24T02:11:31.905Z,4.20
2018-05-24T02:12:31.927Z,3.00
2018-05-24T02:13:31.980Z,3.40
2018-05-24T02:14:31.958Z,3.30
2018-05-24T02:15:31.964Z,3.40
2018-05-24T02:16:31.966Z,3.40
2018-05-24T02:17:31.985Z,3.10
2018-05-24T02:18:32.098Z,3.50
2018-05-24T02:19:32.050Z,3.30
2018-05-24T02:20:32.041Z,3.30
2018-05-24T02:21:32.087Z,3.40
2018-05-24T02:22:32.046Z,3.40
2018-05-24T02:23:32.048Z,3.50
2018-05-24T02:24:32.109Z,3.30
2018-05-24T02:25:32.094Z,3.40
2018-05-24T02:26:32.100Z,3.50
2018-05-24T02:27:32.113Z,3.40
2018-05-24T02:28:32.119Z,3.30
2018-05-24T02:29:32.258Z,3.40
2018-05-24T02:30:32.206Z,3.60
2018-05-24T02:31:32.162Z,3.50
2018-05-24T02:32:32.149Z,3.50
2018-05-24T02:33:32.189Z,3.20
2018-05-24T02:34:32.196Z,3.50
2018-05-24T02:35:32.241Z,3.70
2018-05-24T02:36:32.208Z,3.40
2018-05-24T02:37:32.926Z,3.40
2018-05-24T02:38:32.239Z,3.50
2018-05-24T02:39:32.245Z,3.40
2018-05-24T02:40:32.262Z,3.30
2018-05-24T02:41:32.272Z,3.40
2018-05-24T02:42:32.321Z,3.60
2018-05-24T02:43:32.284Z,3.50
2018-05-24T02:44:32.292Z,3.40
2018-05-24T02:45:32.300Z,3.10
2018-05-24T02:46:32.311Z,3.50
2018-05-24T02:47:32.379Z,3.50
2018-05-24T02:48:32.340Z,3.70
2018-05-24T02:49:32.341Z,4.90
2018-05-24T02:50:32.376Z,3.50
2018-05-24T02:51:32.363Z,3.60
2018-05-24T02:52:32.423Z,3.60
2018-05-24T02:53:32.418Z,3.40
2018-05-24T02:54:32.408Z,3.70
2018-05-24T02:55:32.446Z,3.50
2018-05-24T02:56:32.437Z,3.40
2018-05-24T02:57:32.456Z,3.30
2018-05-24T02:58:32.547Z,3.40
2018-05-24T02:59:32.479Z,3.30
2018-05-24T03:00:32.464Z,3.40
2018-05-24T03:01:32.596Z,3.40
2018-05-24T03:02:32.526Z,3.50
2018-05-24T03:03:32.570Z,3.10
2018-05-24T03:04:32.561Z,3.30
2018-05-24T03:05:32.584Z,4.20
2018-05-24T03:06:32.569Z,3.20
2018-05-24T03:07:32.631Z,3.20
2018-05-24T03:08:32.580Z,3.30
2018-05-24T03:09:32.598Z,3.10
2018-05-24T03:10:32.705Z,3.40
2018-05-24T03:11:32.627Z,3.50
2018-05-24T03:12:32.754Z,3.20
2018-05-24T03:13:32.611Z,3.10
2018-05-24T03:14:32.655Z,3.20
2018-05-24T03:15:32.666Z,3.40
2018-05-24T03:16:32.659Z,3.20
2018-05-24T03:17:32.705Z,3.20
2018-05-24T03:18:32.728Z,4.00
2018-05-24T03:19:32.697Z,3.40
2018-05-24T03:20:32.728Z,3.50
2018-05-24T03:21:32.722Z,3.50
2018-05-24T03:22:32.720Z,3.30
2018-05-24T03:23:32.783Z,3.40
2018-05-24T03:24:32.745Z,3.60
2018-05-24T03:25:32.868Z,3.60
2018-05-24T03:26:32.783Z,3.30
2018-05-24T03:27:32.789Z,3.60
2018-05-24T03:28:32.785Z,3.50
2018-05-24T03:29:32.803Z,3.80
2018-05-24T03:30:32.840Z,3.30
2018-05-24T03:31:32.852Z,3.20
2018-05-24T03:32:32.841Z,3.50
2018-05-24T03:33:32.893Z,3.40
2018-05-24T03:34:32.922Z,3.50
2018-05-24T03:35:32.865Z,3.40
2018-05-24T03:36:32.886Z,3.40
2018-05-24T03:37:32.886Z,3.40
2018-05-24T03:38:33.123Z,3.30
2018-05-24T03:39:32.930Z,3.20
2018-05-24T03:40:32.930Z,3.50
2018-05-24T03:41:32.940Z,3.40
2018-05-24T03:42:33.015Z,3.40
2018-05-24T03:43:32.971Z,3.50
2018-05-24T03:44:32.979Z,3.30
2018-05-24T03:45:32.995Z,3.40
2018-05-24T03:46:33.081Z,3.60
2018-05-24T03:47:33.060Z,3.80
2018-05-24T03:48:33.026Z,3.70
2018-05-24T03:49:33.046Z,3.30
2018-05-24T03:50:33.069Z,3.40
2018-05-24T03:51:33.066Z,3.10
2018-05-24T03:52:33.087Z,3.50
2018-05-24T03:53:33.156Z,3.40
2018-05-24T03:54:33.150Z,3.50
2018-05-24T03:55:33.119Z,3.30
2018-05-24T03:56:33.120Z,3.40
2018-05-24T03:57:33.118Z,3.50
2018-05-24T03:58:33.138Z,3.50
2018-05-24T03:59:33.185Z,3.50
2018-05-24T04:00:33.176Z,3.40
2018-05-24T04:01:33.182Z,3.50
2018-05-24T04:02:33.205Z,3.40
2018-05-24T04:03:33.201Z,3.60
2018-05-24T04:04:33.286Z,3.40
2018-05-24T04:05:33.228Z,3.40
2018-05-24T04:06:33.233Z,3.50
2018-05-24T04:07:33.242Z,3.40
2018-05-24T04:08:33.254Z,3.50
2018-05-24T04:09:33.309Z,3.30
2018-05-24T04:10:33.310Z,3.40
2018-05-24T04:11:33.310Z,3.50
2018-05-24T04:12:33.319Z,3.30
2018-05-24T04:13:33.453Z,3.30
2018-05-24T04:14:33.334Z,3.30
2018-05-24T04:15:33.360Z,3.50
2018-05-24T04:16:33.393Z,3.70
2018-05-24T04:17:33.363Z,3.70
2018-05-24T04:18:33.368Z,3.20
2018-05-24T04:19:33.413Z,3.40
2018-05-24T04:20:33.418Z,3.60
2018-05-24T04:21:33.445Z,3.40
2018-05-24T04:22:33.480Z,3.50
2018-05-24T04:23:33.437Z,3.30
2018-05-24T04:24:33.464Z,3.60
2018-05-24T04:25:33.514Z,3.50
2018-05-24T04:26:33.540Z,3.60
2018-05-24T04:27:33.487Z,3.70
2018-05-24T04:28:33.500Z,3.50
2018-05-24T04:29:33.536Z,3.70
2018-05-24T04:30:33.549Z,3.50
2018-05-24T04:31:33.566Z,3.80
2018-05-24T04:32:33.603Z,3.70
2018-05-24T04:33:33.566Z,3.40
2018-05-24T04:34:33.578Z,3.50
2018-05-24T04:35:33.590Z,3.70
2018-05-24T04:36:33.631Z,3.40
2018-05-24T04:37:33.665Z,3.70
2018-05-24T04:38:33.648Z,3.30
2018-05-24T04:39:33.671Z,3.60
2018-05-24T04:40:33.647Z,3.60
2018-05-24T04:41:33.666Z,3.50
2018-05-24T04:42:33.720Z,3.40
2018-05-24T04:43:33.717Z,3.40
2018-05-24T04:44:33.733Z,3.60
2018-05-24T04:45:33.795Z,3.80
2018-05-24T04:46:33.722Z,3.80
2018-05-24T04:47:33.769Z,3.60
2018-05-24T04:48:33.807Z,3.70
2018-05-24T04:49:33.768Z,3.50
2018-05-24T04:50:33.789Z,3.60
2018-05-24T04:51:33.805Z,3.70
2018-05-24T04:52:33.833Z,3.70
2018-05-24T04:53:33.840Z,3.50
2018-05-24T04:54:33.828Z,3.70
2018-05-24T04:55:33.889Z,3.60
2018-05-24T04:56:33.853Z,3.70
2018-05-24T04:57:33.866Z,3.80
2018-05-24T04:58:33.889Z,3.90
2018-05-24T04:59:33.917Z,3.70
2018-05-24T05:00:33.934Z,3.50
2018-05-24T05:01:34.006Z,3.80
2018-05-24T05:02:33.972Z,3.50
2018-05-24T05:03:33.958Z,3.60
2018-05-24T05:04:33.961Z,3.50
2018-05-24T05:05:33.975Z,3.90
2018-05-24T05:06:33.979Z,3.90
2018-05-24T05:07:34.027Z,3.80
2018-05-24T05:08:34.007Z,3.60
2018-05-24T05:09:34.038Z,3.70
2018-05-24T05:10:34.075Z,3.60
2018-05-24T05:11:34.065Z,3.50
2018-05-24T05:12:34.098Z,3.50
2018-05-24T05:13:34.121Z,3.70
2018-05-24T05:14:34.194Z,3.60
2018-05-24T05:15:34.099Z,3.60
2018-05-24T05:16:34.136Z,3.80
2018-05-24T05:17:34.135Z,3.70
2018-05-24T05:18:34.166Z,3.50
2018-05-24T05:19:34.244Z,3.70
2018-05-24T05:20:34.217Z,3.60
2018-05-24T05:21:34.186Z,3.70
2018-05-24T05:22:34.196Z,3.60
2018-05-24T05:23:34.227Z,3.80
2018-05-24T05:24:34.280Z,3.80
2018-05-24T05:25:34.311Z,3.70
2018-05-24T05:26:34.264Z,3.60
2018-05-24T05:27:34.285Z,3.90
2018-05-24T05:28:34.281Z,3.60
2018-05-24T05:29:34.325Z,3.50
2018-05-24T05:30:34.363Z,3.60
2018-05-24T05:31:34.369Z,3.80
2018-05-24T05:32:34.359Z,3.70
2018-05-24T05:33:34.363Z,3.70
2018-05-24T05:34:34.376Z,4.10
2018-05-24T05:35:34.378Z,3.50
2018-05-24T05:36:34.426Z,4.30
2018-05-24T05:37:34.476Z,3.80
2018-05-24T05:38:34.434Z,3.70
2018-05-24T05:39:34.442Z,3.40
2018-05-24T05:40:34.478Z,3.70
2018-05-24T05:41:34.522Z,3.70
2018-05-24T05:42:34.483Z,3.80
2018-05-24T05:43:34.503Z,3.70
2018-05-24T05:44:34.528Z,4.00
2018-05-24T05:45:34.572Z,4.30
2018-05-24T05:46:34.589Z,4.20
2018-05-24T05:47:34.573Z,3.90
2018-05-24T05:48:34.630Z,3.80
2018-05-24T05:49:34.596Z,4.00
2018-05-24T05:50:34.607Z,3.90
2018-05-24T05:51:34.656Z,4.40
2018-05-24T05:52:34.650Z,3.90
2018-05-24T05:53:34.653Z,4.40
2018-05-24T05:54:34.672Z,4.10
2018-05-24T05:55:34.690Z,4.10
2018-05-24T05:56:34.713Z,3.90
2018-05-24T05:57:34.730Z,3.90
2018-05-24T05:58:34.707Z,3.60
2018-05-24T05:59:34.717Z,3.80
2018-05-24T06:00:34.800Z,3.80
2018-05-24T06:01:34.864Z,4.30
2018-05-24T06:02:34.795Z,4.00
2018-05-24T06:03:34.799Z,3.90
2018-05-24T06:04:34.795Z,3.70
2018-05-24T06:05:34.829Z,3.70
2018-05-24T06:06:34.883Z,4.00
2018-05-24T06:07:34.843Z,4.10
2018-05-24T06:08:34.857Z,4.00
2018-05-24T06:09:34.906Z,4.20
2018-05-24T06:10:34.880Z,4.30
2018-05-24T06:11:34.941Z,4.20
2018-05-24T06:12:34.927Z,3.90
2018-05-24T06:13:34.905Z,3.80
2018-05-24T06:14:34.958Z,4.10
2018-05-24T06:15:34.969Z,4.00
2018-05-24T06:16:34.972Z,4.20
2018-05-24T06:17:35.047Z,4.00
2018-05-24T06:18:34.987Z,4.30
2018-05-24T06:19:34.990Z,4.00
2018-05-24T06:20:35.008Z,3.80
2018-05-24T06:21:35.036Z,4.00
2018-05-24T06:22:35.025Z,4.00
2018-05-24T06:23:35.082Z,4.00
2018-05-24T06:24:35.085Z,3.60
2018-05-24T06:25:35.072Z,3.90
2018-05-24T06:26:35.112Z,3.70
2018-05-24T06:27:35.100Z,4.00
2018-05-24T06:28:35.225Z,3.90
2018-05-24T06:29:35.112Z,4.30
2018-05-24T06:30:35.131Z,4.20
2018-05-24T06:31:35.144Z,4.10
2018-05-24T06:32:35.157Z,4.00
2018-05-24T06:33:35.218Z,3.90
2018-05-24T06:34:35.213Z,4.00
2018-05-24T06:35:35.222Z,4.20
2018-05-24T06:36:35.223Z,3.90
2018-05-24T06:37:35.234Z,3.70
2018-05-24T06:38:35.239Z,4.10
2018-05-24T06:39:35.285Z,4.10
2018-05-24T06:40:35.308Z,4.00
2018-05-24T06:41:35.297Z,4.00
2018-05-24T06:42:35.271Z,4.10
2018-05-24T06:43:35.376Z,4.00
2018-05-24T06:44:35.329Z,3.70
2018-05-24T06:45:35.383Z,4.00
2018-05-24T06:46:35.360Z,4.20
2018-05-24T06:47:35.338Z,3.90
2018-05-24T06:48:35.361Z,4.40
2018-05-24T06:49:35.360Z,4.10
2018-05-24T06:50:35.436Z,4.10
2018-05-24T06:51:35.415Z,4.00
2018-05-24T06:52:35.401Z,4.40
2018-05-24T06:53:35.431Z,4.10
2018-05-24T06:54:35.468Z,3.90
2018-05-24T06:55:35.490Z,4.00
2018-05-24T06:56:35.457Z,4.20
2018-05-24T06:57:35.477Z,4.20
2018-05-24T06:58:35.519Z,4.30
2018-05-24T06:59:35.494Z,4.60
2018-05-24T07:00:35.505Z,4.10
2018-05-24T07:01:35.560Z,4.00
2018-05-24T07:02:35.537Z,4.30
2018-05-24T07:03:35.562Z,4.20
2018-05-24T07:04:35.851Z,4.30
2018-05-24T07:05:35.599Z,3.90
2018-05-24T07:06:35.592Z,4.20
2018-05-24T07:07:35.601Z,4.00
2018-05-24T07:08:35.596Z,4.00
2018-05-24T07:09:35.697Z,3.90
2018-05-24T07:10:35.652Z,4.10
2018-05-24T07:11:35.653Z,4.50
2018-05-24T07:12:35.674Z,4.20
2018-05-24T07:13:35.669Z,4.00
2018-05-24T07:14:35.736Z,4.00
2018-05-24T07:15:35.696Z,4.20
2018-05-24T07:16:35.714Z,4.00
2018-05-24T07:17:35.762Z,3.90
2018-05-24T07:18:35.834Z,4.10
2018-05-24T07:19:35.742Z,3.70
2018-05-24T07:20:35.761Z,3.80
2018-05-24T07:21:35.789Z,3.90
2018-05-24T07:22:35.834Z,3.80
2018-05-24T07:23:35.815Z,3.90
2018-05-24T07:24:35.834Z,4.10
2018-05-24T07:25:35.817Z,4.00
2018-05-24T07:26:35.830Z,4.10
2018-05-24T07:27:35.889Z,3.80
2018-05-24T07:28:35.887Z,3.80
2018-05-24T07:29:35.883Z,3.90
2018-05-24T07:30:35.901Z,4.30
2018-05-24T07:31:35.933Z,3.70
2018-05-24T07:32:35.918Z,4.00
2018-05-24T07:33:35.949Z,3.90
2018-05-24T07:34:35.972Z,4.10
2018-05-24T07:35:35.956Z,4.00
2018-05-24T07:36:35.999Z,3.80
2018-05-24T07:37:35.986Z,4.10
2018-05-24T07:38:36.019Z,3.70
2018-05-24T07:39:36.114Z,4.20
2018-05-24T07:40:36.033Z,3.80
2018-05-24T07:41:36.033Z,3.90
2018-05-24T07:42:36.062Z,4.00
2018-05-24T07:43:36.066Z,4.10
2018-05-24T07:44:36.095Z,4.10
2018-05-24T07:45:36.082Z,3.90
2018-05-24T07:46:36.094Z,3.80
2018-05-24T07:47:36.120Z,3.50
2018-05-24T07:48:36.138Z,4.20
2018-05-24T07:49:36.196Z,3.90
2018-05-24T07:50:36.184Z,3.80
2018-05-24T07:51:36.154Z,4.00
2018-05-24T07:52:36.169Z,3.90
2018-05-24T07:53:36.201Z,4.30
2018-05-24T07:54:36.253Z,4.10
2018-05-24T07:55:36.225Z,3.80
2018-05-24T07:56:36.234Z,3.90
2018-05-24T07:57:36.238Z,3.80
2018-05-24T07:58:36.257Z,4.00
2018-05-24T07:59:36.301Z,3.80
2018-05-24T08:00:36.272Z,4.10
2018-05-24T08:01:36.366Z,3.50
2018-05-24T08:02:36.296Z,3.90
2018-05-24T08:03:36.312Z,3.50
2018-05-24T08:04:36.371Z,3.50
2018-05-24T08:05:36.380Z,3.60
2018-05-24T08:06:36.362Z,3.90
2018-05-24T08:07:36.410Z,3.60
2018-05-24T08:08:36.475Z,3.80
2018-05-24T08:09:36.410Z,3.80
2018-05-24T08:10:36.436Z,3.90
2018-05-24T08:11:36.442Z,3.80
2018-05-24T08:12:36.432Z,3.70
2018-05-24T08:13:36.488Z,3.50
2018-05-24T08:14:36.502Z,3.90
2018-05-24T08:15:36.514Z,3.60
2018-05-24T08:16:36.492Z,3.80
2018-05-24T08:17:36.532Z,3.60
2018-05-24T08:18:36.506Z,3.80
2018-05-24T08:19:36.517Z,3.60
2018-05-24T08:20:36.550Z,3.40
2018-05-24T08:21:36.580Z,3.80
2018-05-24T08:22:36.680Z,3.70
2018-05-24T08:23:36.620Z,3.70
2018-05-24T08:24:36.605Z,3.40
2018-05-24T08:25:36.617Z,3.50
2018-05-24T08:26:36.633Z,3.50
2018-05-24T08:27:36.650Z,3.70
2018-05-24T08:28:36.686Z,3.40
2018-05-24T08:29:36.655Z,3.50
2018-05-24T08:30:36.703Z,3.50
2018-05-24T08:31:36.684Z,3.60
2018-05-24T08:32:36.728Z,3.50
2018-05-24T08:33:36.754Z,3.30
2018-05-24T08:34:36.733Z,3.70
2018-05-24T08:35:36.760Z,3.40
2018-05-24T08:36:36.764Z,3.50
2018-05-24T08:37:36.761Z,3.60
2018-05-24T08:38:36.817Z,3.60
2018-05-24T08:39:36.798Z,3.50
2018-05-24T08:40:36.833Z,3.50
2018-05-24T08:41:36.903Z,3.80
2018-05-24T08:42:36.856Z,3.80
2018-05-24T08:43:36.892Z,3.50
2018-05-24T08:44:36.904Z,3.60
2018-05-24T08:45:36.885Z,3.80
2018-05-24T08:46:36.903Z,3.60
2018-05-24T08:47:36.937Z,3.70
2018-05-24T08:48:36.922Z,3.60
2018-05-24T08:49:36.965Z,3.50
2018-05-24T08:50:36.951Z,3.60
2018-05-24T08:51:36.958Z,3.60
2018-05-24T08:52:37.001Z,3.30
2018-05-24T08:53:36.977Z,3.50
2018-05-24T08:54:37.020Z,3.50
2018-05-24T08:55:37.009Z,3.20
2018-05-24T08:56:37.040Z,3.40
2018-05-24T08:57:37.040Z,3.50
2018-05-24T08:58:37.046Z,3.60
2018-05-24T08:59:37.099Z,3.60
2018-05-24T09:00:37.082Z,3.40
2018-05-24T09:01:37.110Z,3.40
2018-05-24T09:02:37.116Z,3.10
2018-05-24T09:03:37.150Z,3.50
2018-05-24T09:04:37.140Z,3.40
2018-05-24T09:05:37.198Z,3.50
2018-05-24T09:06:37.162Z,3.40
2018-05-24T09:07:37.194Z,3.20
2018-05-24T09:08:37.207Z,3.40
2018-05-24T09:09:37.194Z,3.50
2018-05-24T09:10:37.236Z,3.40
2018-05-24T09:11:37.287Z,3.70
2018-05-24T09:12:37.234Z,3.30
2018-05-24T09:13:37.258Z,3.40
2018-05-24T09:14:37.263Z,3.40
2018-05-24T09:15:37.325Z,3.50
2018-05-24T09:16:37.341Z,3.50
2018-05-24T09:17:37.304Z,3.20
2018-05-24T09:18:37.354Z,3.40
2018-05-24T09:19:37.351Z,3.10
2018-05-24T09:20:37.357Z,2.90
2018-05-24T09:21:37.415Z,3.10
2018-05-24T09:22:37.419Z,3.20
2018-05-24T09:23:37.380Z,3.30
2018-05-24T09:24:37.402Z,3.00
2018-05-24T09:25:37.425Z,2.90
2018-05-24T09:26:37.465Z,2.80
2018-05-24T09:27:37.506Z,3.10
2018-05-24T09:28:37.463Z,2.80
2018-05-24T09:29:37.509Z,2.80
2018-05-24T09:30:37.484Z,2.90
2018-05-24T09:31:37.514Z,2.90
2018-05-24T09:32:37.553Z,2.90
2018-05-24T09:33:37.539Z,2.90
2018-05-24T09:34:37.544Z,3.00
2018-05-24T09:35:37.549Z,3.20
2018-05-24T09:36:37.577Z,3.00
2018-05-24T09:37:37.621Z,3.00
2018-05-24T09:38:37.600Z,3.00
2018-05-24T09:39:37.607Z,3.30
2018-05-24T09:40:37.634Z,3.00
2018-05-24T09:41:37.645Z,3.10
2018-05-24T09:42:37.703Z,2.80
2018-05-24T09:43:37.653Z,2.90
2018-05-24T09:44:37.709Z,2.90
2018-05-24T09:45:37.686Z,2.70
2018-05-24T09:46:37.789Z,3.00
2018-05-24T09:47:37.751Z,2.70
2018-05-24T09:48:37.736Z,2.50
2018-05-24T09:49:37.754Z,2.60
2018-05-24T09:50:37.763Z,2.70
2018-05-24T09:51:37.783Z,2.70
2018-05-24T09:52:37.825Z,2.80
2018-05-24T09:53:37.839Z,2.50
2018-05-24T09:54:37.808Z,2.80
2018-05-24T09:55:37.862Z,3.10
2018-05-24T09:56:37.883Z,2.90
2018-05-24T09:57:37.853Z,3.20
2018-05-24T09:58:37.883Z,2.90
2018-05-24T09:59:37.900Z,3.10
2018-05-24T10:00:37.951Z,2.80
2018-05-24T10:01:37.903Z,3.30
2018-05-24T10:02:37.917Z,2.80
2018-05-24T10:03:37.951Z,3.00
2018-05-24T10:04:38.095Z,3.30
2018-05-24T10:05:38.014Z,3.20
2018-05-24T10:06:38.041Z,3.30
2018-05-24T10:07:37.992Z,3.10
2018-05-24T10:08:38.053Z,3.10
2018-05-24T10:09:38.011Z,2.80
2018-05-24T10:10:38.087Z,2.70
2018-05-24T10:11:38.054Z,2.90
2018-05-24T10:12:38.082Z,2.30
2018-05-24T10:13:38.111Z,2.90
2018-05-24T10:14:38.098Z,2.80
2018-05-24T10:15:38.112Z,2.60
2018-05-24T10:16:38.112Z,2.70
2018-05-24T10:17:38.160Z,2.90
2018-05-24T10:18:38.177Z,2.80
2018-05-24T10:19:38.193Z,2.60
2018-05-24T10:20:38.183Z,2.70
2018-05-24T10:21:38.225Z,2.90
2018-05-24T10:22:38.222Z,2.80
2018-05-24T10:23:38.241Z,3.20
2018-05-24T10:24:38.279Z,2.80
2018-05-24T10:25:38.304Z,3.10
2018-05-24T10:26:38.285Z,2.80
2018-05-24T10:27:38.289Z,2.90
2018-05-24T10:28:38.419Z,3.00
2018-05-24T10:29:38.297Z,3.10
2018-05-24T10:30:38.355Z,2.90
2018-05-24T10:31:38.367Z,3.00
2018-05-24T10:32:38.376Z,2.70
2018-05-24T10:33:38.432Z,2.80
2018-05-24T10:34:38.370Z,3.00
2018-05-24T10:35:38.411Z,2.80
2018-05-24T10:36:38.416Z,2.70
2018-05-24T10:37:38.408Z,2.80
2018-05-24T10:38:38.448Z,2.90
2018-05-24T10:39:38.589Z,2.80
2018-05-24T10:40:38.462Z,2.80
2018-05-24T10:41:38.502Z,2.90
2018-05-24T10:42:38.482Z,2.90
2018-05-24T10:43:38.509Z,2.90
2018-05-24T10:44:38.552Z,3.20
2018-05-24T10:45:38.577Z,2.90
2018-05-24T10:46:38.534Z,3.10
2018-05-24T10:47:38.563Z,2.80
2018-05-24T10:48:38.576Z,2.80
2018-05-24T10:49:38.586Z,2.80
2018-05-24T10:50:38.625Z,2.70
2018-05-24T10:51:38.626Z,2.60
2018-05-24T10:52:38.634Z,2.80
2018-05-24T10:53:38.637Z,2.70
2018-05-24T10:54:38.698Z,2.90
2018-05-24T10:55:38.705Z,2.80
2018-05-24T10:56:38.716Z,2.70
2018-05-24T10:57:38.710Z,3.00
2018-05-24T10:58:38.717Z,3.40
2018-05-24T10:59:38.744Z,3.80
2018-05-24T11:00:38.794Z,3.10
2018-05-24T11:01:38.761Z,3.40
2018-05-24T11:02:38.796Z,3.10
2018-05-24T11:03:38.858Z,3.00
2018-05-24T11:04:38.799Z,2.70
2018-05-24T11:05:38.876Z,3.00
2018-05-24T11:06:38.842Z,2.80
2018-05-24T11:07:38.867Z,3.20
2018-05-24T11:08:38.889Z,3.00
2018-05-24T11:09:38.878Z,3.40
2018-05-24T11:10:38.887Z,3.30
2018-05-24T11:11:39.041Z,2.70
2018-05-24T11:12:38.948Z,2.60
2018-05-24T11:13:38.963Z,2.60
2018-05-24T11:14:38.950Z,2.80
2018-05-24T11:15:38.967Z,2.90
2018-05-24T11:16:38.978Z,3.00
2018-05-24T11:17:39.013Z,2.90
2018-05-24T11:18:39.064Z,3.80
2018-05-24T11:19:39.032Z,2.80
2018-05-24T11:20:39.036Z,3.10
2018-05-24T11:21:39.044Z,2.90
2018-05-24T11:22:39.114Z,2.80
2018-05-24T11:23:39.105Z,2.80
2018-05-24T11:24:39.104Z,2.80
2018-05-24T11:25:39.117Z,2.90
2018-05-24T11:26:39.143Z,2.80
2018-05-24T11:27:39.167Z,2.50
2018-05-24T11:28:39.161Z,2.80
2018-05-24T11:29:39.249Z,2.70
2018-05-24T11:30:39.201Z,2.80
2018-05-24T11:31:39.300Z,2.70
2018-05-24T11:32:39.221Z,2.90
2018-05-24T11:33:39.237Z,2.90
2018-05-24T11:34:39.281Z,3.30
2018-05-24T11:35:39.279Z,2.60
2018-05-24T11:36:39.272Z,2.40
2018-05-24T11:37:39.349Z,2.70
2018-05-24T11:38:39.308Z,2.90
2018-05-24T11:39:39.353Z,2.90
2018-05-24T11:40:39.328Z,2.40
2018-05-24T11:41:39.347Z,2.50
2018-05-24T11:42:39.420Z,2.50
2018-05-24T11:43:39.374Z,2.40
2018-05-24T11:44:39.439Z,2.50
2018-05-24T11:45:39.417Z,2.70
2018-05-24T11:46:39.424Z,2.60
2018-05-24T11:47:39.451Z,2.80
2018-05-24T11:48:39.506Z,2.40
2018-05-24T11:49:39.504Z,2.60
2018-05-24T11:50:39.528Z,2.80
2018-05-24T11:51:39.552Z,2.40
2018-05-24T11:52:39.535Z,2.40
2018-05-24T11:53:39.519Z,2.60
2018-05-24T11:54:39.573Z,2.70
2018-05-24T11:55:39.574Z,2.60
2018-05-24T11:56:39.591Z,2.40
2018-05-24T11:57:39.705Z,2.70
2018-05-24T11:58:39.605Z,2.70
2018-05-24T11:59:39.661Z,2.70
2018-05-24T12:00:39.683Z,2.30
2018-05-24T12:01:39.681Z,2.50
2018-05-24T12:02:39.691Z,2.50
2018-05-24T12:03:39.693Z,2.30
2018-05-24T12:04:39.706Z,2.80
2018-05-24T12:05:39.707Z,2.40
2018-05-24T12:06:39.716Z,2.60
2018-05-24T12:07:39.805Z,2.40
2018-05-24T12:08:39.754Z,2.70
2018-05-24T12:09:39.780Z,2.60
2018-05-24T12:10:39.790Z,2.60
2018-05-24T12:11:39.791Z,2.30
2018-05-24T12:12:39.861Z,2.50
2018-05-24T12:13:39.872Z,2.50
2018-05-24T12:14:39.877Z,2.30
2018-05-24T12:15:39.871Z,2.50
2018-05-24T12:16:39.893Z,2.40
2018-05-24T12:17:39.891Z,2.40
2018-05-24T12:18:39.956Z,2.50
2018-05-24T12:19:39.916Z,2.40
2018-05-24T12:20:39.933Z,2.20
2018-05-24T12:21:39.961Z,2.60
2018-05-24T12:22:39.987Z,2.50
2018-05-24T12:23:40.105Z,2.20
2018-05-24T12:24:39.987Z,2.30
2018-05-24T12:25:40.008Z,2.20
2018-05-24T12:26:40.017Z,2.50
2018-05-24T12:27:40.046Z,2.50
2018-05-24T12:28:40.086Z,2.40
2018-05-24T12:29:40.089Z,2.10
2018-05-24T12:30:40.088Z,2.10
2018-05-24T12:31:40.104Z,2.20
2018-05-24T12:32:40.152Z,2.10
2018-05-24T12:33:40.192Z,2.30
2018-05-24T12:34:40.162Z,2.30
2018-05-24T12:35:40.177Z,2.60
2018-05-24T12:36:40.182Z,2.10
2018-05-24T12:37:40.259Z,2.00
2018-05-24T12:38:40.194Z,2.70
2018-05-24T12:39:40.210Z,2.30
2018-05-24T12:40:40.273Z,2.30
2018-05-24T12:41:40.300Z,2.20
2018-05-24T12:42:40.275Z,2.50
2018-05-24T12:43:40.282Z,2.60
2018-05-24T12:44:40.325Z,2.10
2018-05-24T12:45:40.347Z,2.30
2018-05-24T12:46:40.348Z,2.40
2018-05-24T12:47:40.360Z,2.30
2018-05-24T12:48:40.377Z,2.20
2018-05-24T12:49:40.433Z,2.50
2018-05-24T12:50:40.436Z,2.40
2018-05-24T12:51:40.437Z,2.50
2018-05-24T12:52:40.449Z,2.20
2018-05-24T12:53:40.433Z,2.40
2018-05-24T12:54:40.441Z,2.20
2018-05-24T12:55:40.511Z,2.40
2018-05-24T12:56:40.557Z,2.40
2018-05-24T12:57:40.678Z,2.40
2018-05-24T12:58:40.512Z,2.50
2018-05-24T12:59:40.557Z,2.50
2018-05-24T13:00:40.547Z,2.10
2018-05-24T13:01:40.560Z,2.10
2018-05-24T13:02:40.616Z,2.40
2018-05-24T13:03:40.593Z,2.20
2018-05-24T13:04:40.622Z,2.30
2018-05-24T13:05:40.611Z,2.20
2018-05-24T13:06:40.634Z,2.30
2018-05-24T13:07:40.699Z,2.30
2018-05-24T13:08:40.663Z,2.40
2018-05-24T13:09:40.681Z,2.20
2018-05-24T13:10:40.714Z,2.40
2018-05-24T13:11:40.700Z,2.40
2018-05-24T13:12:40.739Z,2.20
2018-05-24T13:13:41.620Z,2.20
2018-05-24T13:14:40.774Z,2.30
2018-05-24T13:15:40.797Z,2.50
2018-05-24T13:16:40.772Z,2.30
2018-05-24T13:17:40.793Z,2.40
2018-05-24T13:18:40.857Z,2.30